Hurley, WI (54565)

8:04 AM CDT on October 31, 2014 (GMT -0500)
5050 Ranch | Change Station
CLOSE
Current Station
Personal Weather Station
Location: High Bridge, WI
Elevation: 1300 ft
Nearby Weather Stations
Active Advisory: Lake Effect Snow Advisory Active Notice: Local Storm Report

Elev 1300 ft 46.35 °N, 90.75 °W | Updated 1 minute ago

Overcast
Overcast
28.5 °F
Feels Like 28 °F
N
0.0
Wind Variable Wind from NE
Gusts 3.0 mph

Today
High -- | Low -- °F
--% Chance of Precip.
Yesterday
High -- | Low -- °F
Precip. -- in
7:41 AM 5:48 PM
First Quarter, 55% visible
Pressure 30.40 in
Visibility 0.8 miles
Clouds Mostly Cloudy 800 ft
Overcast 1100 ft
Windchill 28 °F
Dew Point 23 °F
Humidity 81%
Rainfall 0.00 in
Snow Depth Not available.
UV 0 out of 12
Pollen .10 out of 12
Air Quality Not available.
Flu Activity Not available.
METAR KIWD 311255Z AUTO 02008G14KT 3/4SM BKN008 OVC011 M02/M03 A3040 RMK AO1

More Conditions Fewer Conditions

Pressure 30.40 in
Visibility 0.8 miles
Clouds Mostly Cloudy 800 ft
Overcast 1100 ft
Windchill 28 °F
Dew Point 23 °F
Humidity 81%
Rainfall 0.00 in
Snow Depth Not available.
UV 0 out of 12
Pollen .10 out of 12
Air Quality Not available.
Flu Activity Not available.
METAR KIWD 311255Z AUTO 02008G14KT 3/4SM BKN008 OVC011 M02/M03 A3040 RMK AO1

More Conditions Fewer Conditions

10-Day Weather Forecast

Almanac

Astronomy

Oct. 31, 2014 Rise Set
Actual Time
Civil Twilight
Nautical Twilight
Astronomical Twilight
Moon
Length of Visible Light
Length of Day
Tomorrow will be .
, % of the Moon is Illuminated

Today's Extremes

State Highs State Lows

Community

WunderPhotos

Upload Photos

1,766,601 photos uploaded!

WunderBlogs® & News

Nearby

Air Quality

  Air Quality AQ Index Pollutant
Not available.

Snow Depth

Station Depth Elevation

Earthquake Activity

City Distance Mag. Time & Date
Minimum magnitude displayed is 2.5.

Coastal Water Temperatures

Place Temperature

Nearby Weather Stations